Time;durP1;ratioP1;P1;durP2;ratioP2;P2;SDS_P1;SDS_P2;PMS_P1;PMS_P2;Temp;Humidity;BMP_temperature;BMP_pressure;BME280_temperature;BME280_humidity;BME280_pressure;Samples;Min_cycle;Max_cycle;Signal;HPM_P1;HPM_P2
2023/08/24 00:00:45;;;;;;;9.10;6.45;;;21.20;99.90;;;;;;5031824;28;20121;-76
2023/08/24 00:03:12;;;;;;;8.50;5.35;;;21.10;99.90;;;;;;5031032;28;20037;-75
2023/08/24 00:05:38;;;;;;;10.90;6.70;;;21.20;99.90;;;;;;5033488;28;20029;-75
2023/08/24 00:08:10;;;;;;;6.95;6.03;;;21.20;99.90;;;;;;5033480;28;20475;-76
2023/08/24 00:10:37;;;;;;;9.75;6.18;;;21.20;99.90;;;;;;5031828;28;20399;-79
2023/08/24 00:13:03;;;;;;;12.20;6.63;;;21.10;99.90;;;;;;5021837;28;20033;-76
2023/08/24 00:15:30;;;;;;;9.05;7.00;;;21.10;99.90;;;;;;5025730;28;20425;-75
2023/08/24 00:17:56;;;;;;;12.48;6.30;;;21.00;99.90;;;;;;5030137;28;20032;-75
2023/08/24 00:20:22;;;;;;;11.45;6.78;;;21.00;99.90;;;;;;5031843;28;20391;-75
2023/08/24 00:22:48;;;;;;;13.43;7.22;;;21.10;99.90;;;;;;5031262;28;20029;-76
2023/08/24 00:25:14;;;;;;;8.85;6.60;;;21.00;99.90;;;;;;5032285;28;20561;-76
2023/08/24 00:27:40;;;;;;;8.65;7.15;;;20.90;99.90;;;;;;5030695;28;20060;-75
2023/08/24 00:30:07;;;;;;;9.20;6.72;;;20.90;99.90;;;;;;5032585;28;20074;-76
2023/08/24 00:32:34;;;;;;;11.30;8.10;;;20.90;99.90;;;;;;5031506;28;20162;-76
2023/08/24 00:35:06;;;;;;;12.65;7.55;;;20.90;99.90;;;;;;5034036;28;20029;-76
2023/08/24 00:37:31;;;;;;;8.60;7.57;;;20.90;99.90;;;;;;5039449;28;20597;-75
2023/08/24 00:40:01;;;;;;;11.38;7.90;;;20.90;99.90;;;;;;5035326;28;20117;-76
2023/08/24 00:42:27;;;;;;;9.48;6.75;;;20.90;99.90;;;;;;5029050;28;20029;-77
2023/08/24 00:44:53;;;;;;;11.23;6.50;;;20.90;99.90;;;;;;5047905;28;20028;-76
2023/08/24 00:47:19;;;;;;;10.43;7.28;;;20.80;99.90;;;;;;5031123;28;20021;-76
2023/08/24 00:49:45;;;;;;;10.90;6.00;;;20.90;99.90;;;;;;5029059;28;20487;-76
2023/08/24 00:52:12;;;;;;;8.57;6.45;;;20.90;99.90;;;;;;5031930;28;20025;-76
2023/08/24 00:54:39;;;;;;;8.77;7.25;;;20.90;99.90;;;;;;5040098;28;20025;-80
2023/08/24 00:57:06;;;;;;;12.00;7.05;;;20.80;99.90;;;;;;5032143;28;20438;-77
2023/08/24 00:59:33;;;;;;;7.88;6.57;;;20.80;99.90;;;;;;5032294;28;20287;-76
2023/08/24 01:02:00;;;;;;;14.75;7.85;;;20.80;99.90;;;;;;5028053;28;20037;-77
2023/08/24 01:04:26;;;;;;;11.93;8.30;;;20.80;99.90;;;;;;5046902;28;20048;-76
2023/08/24 01:06:52;;;;;;;10.40;7.22;;;20.80;99.90;;;;;;5032255;28;20053;-76
2023/08/24 01:09:20;;;;;;;10.90;8.32;;;20.70;99.90;;;;;;5032296;28;20026;-76
2023/08/24 01:12:06;;;;;;;13.88;10.23;;;20.70;99.90;;;;;;5047525;28;20108;-76
2023/08/24 01:14:56;;;;;;;10.25;7.45;;;20.60;99.90;;;;;;5031087;28;20365;-76
2023/08/24 01:17:24;;;;;;;8.93;7.45;;;20.70;99.90;;;;;;5018484;28;20030;-79
2023/08/24 01:19:50;;;;;;;13.65;7.80;;;20.60;99.90;;;;;;5024285;28;20391;-76
2023/08/24 01:22:41;;;;;;;13.20;7.90;;;20.40;99.90;;;;;;5030474;28;20025;-76
2023/08/24 01:25:20;;;;;;;12.38;7.55;;;20.40;99.90;;;;;;5032444;28;20022;-76
2023/08/24 01:27:48;;;;;;;10.02;7.32;;;20.50;99.90;;;;;;5030518;28;20009;-77
2023/08/24 01:30:15;;;;;;;10.13;8.52;;;20.60;99.90;;;;;;5047110;28;20026;-76
2023/08/24 01:32:40;;;;;;;16.65;9.32;;;20.50;99.90;;;;;;5032073;28;20022;-76
2023/08/24 01:35:09;;;;;;;10.82;8.38;;;20.60;99.90;;;;;;5030492;28;20490;-76
2023/08/24 01:37:35;;;;;;;12.88;8.90;;;20.60;99.90;;;;;;5030742;28;20052;-80
2023/08/24 01:40:35;;;;;;;10.30;7.72;;;20.60;99.90;;;;;;5030663;28;20087;-76
2023/08/24 01:43:07;;;;;;;8.10;6.97;;;20.60;99.90;;;;;;5043643;28;20022;-77
2023/08/24 01:45:33;;;;;;;9.77;6.97;;;20.50;99.90;;;;;;5022784;28;20037;-76
2023/08/24 01:48:03;;;;;;;9.10;6.63;;;20.60;99.90;;;;;;5027024;28;20025;-76
2023/08/24 01:50:33;;;;;;;11.82;7.55;;;20.60;99.90;;;;;;5031573;28;20034;-75
2023/08/24 01:52:59;;;;;;;11.82;8.40;;;20.60;99.90;;;;;;5030254;28;20017;-76
2023/08/24 01:55:25;;;;;;;10.20;8.52;;;20.60;99.90;;;;;;5032164;28;20119;-76
2023/08/24 01:57:51;;;;;;;13.77;8.55;;;20.60;99.90;;;;;;5030465;28;20017;-76
2023/08/24 02:00:17;;;;;;;12.52;8.43;;;20.60;99.90;;;;;;5030013;28;20505;-79
2023/08/24 02:02:44;;;;;;;11.88;9.57;;;20.60;99.90;;;;;;5030895;28;20601;-76
2023/08/24 02:05:10;;;;;;;15.38;11.00;;;20.50;99.90;;;;;;5034896;28;20017;-76
2023/08/24 02:07:36;;;;;;;11.65;8.25;;;20.50;99.90;;;;;;5034483;28;20365;-76
2023/08/24 02:10:02;;;;;;;10.95;9.07;;;20.40;99.90;;;;;;5033847;28;20028;-77
2023/08/24 02:12:27;;;;;;;13.60;7.90;;;20.30;99.90;;;;;;5034492;28;20079;-76
2023/08/24 02:14:53;;;;;;;12.80;9.40;;;20.30;99.90;;;;;;5033998;28;20022;-76
2023/08/24 02:17:19;;;;;;;10.18;7.90;;;20.40;99.90;;;;;;5035471;28;20053;-76
2023/08/24 02:19:45;;;;;;;9.20;8.25;;;20.40;99.90;;;;;;5049147;28;20032;-76
2023/08/24 02:22:10;;;;;;;10.73;8.18;;;20.50;99.90;;;;;;5034829;28;20025;-76
2023/08/24 02:24:36;;;;;;;13.90;9.98;;;20.50;99.90;;;;;;5050642;28;20025;-77
2023/08/24 02:27:02;;;;;;;11.95;10.70;;;20.60;99.90;;;;;;5035412;28;20025;-76
2023/08/24 02:29:27;;;;;;;9.70;8.05;;;20.50;99.90;;;;;;5037615;28;20164;-77
2023/08/24 02:31:53;;;;;;;10.38;8.30;;;20.20;99.90;;;;;;5033299;28;20048;-76
2023/08/24 02:34:19;;;;;;;12.70;9.00;;;20.30;99.90;;;;;;5034299;28;20026;-76
2023/08/24 02:36:45;;;;;;;15.15;9.43;;;20.40;99.90;;;;;;5033818;28;20032;-75
2023/08/24 02:39:10;;;;;;;10.90;8.20;;;20.30;99.90;;;;;;5040179;28;20124;-76
2023/08/24 02:41:36;;;;;;;11.57;9.75;;;20.40;99.90;;;;;;5030766;28;20069;-75
2023/08/24 02:44:03;;;;;;;14.65;9.68;;;20.40;99.90;;;;;;5027951;28;20025;-76
2023/08/24 02:46:28;;;;;;;10.15;8.48;;;20.50;99.90;;;;;;5033345;28;20025;-76
2023/08/24 02:48:54;;;;;;;15.10;9.85;;;20.50;99.90;;;;;;5034295;28;20020;-76
2023/08/24 02:51:22;;;;;;;17.30;9.98;;;20.50;99.90;;;;;;5030002;28;20036;-76
2023/08/24 02:53:48;;;;;;;14.48;8.88;;;20.50;99.90;;;;;;5028071;28;20029;-78
2023/08/24 02:56:14;;;;;;;12.90;10.07;;;20.50;99.90;;;;;;5033350;28;20063;-81
2023/08/24 02:58:40;;;;;;;11.10;8.48;;;20.50;99.90;;;;;;5031716;28;20084;-78
2023/08/24 03:01:07;;;;;;;11.52;7.88;;;20.40;99.90;;;;;;5033207;28;20031;-76
2023/08/24 03:03:36;;;;;;;11.55;8.88;;;20.30;99.90;;;;;;5034812;28;20033;-79
2023/08/24 03:06:05;;;;;;;10.48;8.05;;;20.20;99.90;;;;;;5024566;28;20059;-80
2023/08/24 03:08:32;;;;;;;11.05;8.07;;;20.10;99.90;;;;;;5028332;28;20030;-81
2023/08/24 03:11:01;;;;;;;14.18;8.15;;;20.10;99.90;;;;;;5033568;28;20056;-81
2023/08/24 03:13:28;;;;;;;14.00;10.70;;;20.20;99.90;;;;;;5039993;28;20021;-81
2023/08/24 03:15:54;;;;;;;9.75;8.32;;;20.40;99.90;;;;;;5030921;28;20384;-82
2023/08/24 03:18:20;;;;;;;12.80;8.73;;;20.40;99.90;;;;;;5018805;28;20025;-81
2023/08/24 03:20:47;;;;;;;11.50;9.70;;;20.40;99.90;;;;;;5026246;28;20021;-81
2023/08/24 03:23:13;;;;;;;15.80;10.63;;;20.40;99.90;;;;;;5034553;28;20025;-80
2023/08/24 03:25:40;;;;;;;16.73;10.38;;;20.30;99.90;;;;;;5028144;28;20485;-81
2023/08/24 03:28:08;;;;;;;13.50;10.73;;;20.30;99.90;;;;;;5035125;28;20138;-80
2023/08/24 03:30:38;;;;;;;12.85;8.43;;;20.30;99.90;;;;;;5046148;28;20398;-80
2023/08/24 03:33:05;;;;;;;18.75;13.52;;;20.10;99.90;;;;;;5042738;28;20041;-79
2023/08/24 03:35:31;;;;;;;17.38;14.05;;;20.10;99.90;;;;;;5045666;28;20030;-79
2023/08/24 03:37:57;;;;;;;11.43;9.82;;;20.00;99.90;;;;;;5033535;28;20044;-80
2023/08/24 03:40:23;;;;;;;16.40;12.00;;;20.00;99.90;;;;;;5034584;28;20431;-79
2023/08/24 03:42:49;;;;;;;19.45;14.60;;;20.00;99.90;;;;;;5034131;28;20112;-79
2023/08/24 03:45:15;;;;;;;18.58;15.18;;;20.00;99.90;;;;;;5039121;28;20068;-79
2023/08/24 03:47:41;;;;;;;27.00;17.85;;;20.10;99.90;;;;;;5032071;28;20026;-79
2023/08/24 03:50:07;;;;;;;23.13;17.63;;;20.10;99.90;;;;;;5033653;28;20021;-78
2023/08/24 03:52:33;;;;;;;23.67;16.83;;;20.20;99.90;;;;;;5033720;28;20031;-79
2023/08/24 03:54:58;;;;;;;22.73;17.88;;;20.20;99.90;;;;;;5037614;28;20026;-78
2023/08/24 03:57:24;;;;;;;28.88;18.75;;;20.20;99.90;;;;;;5034218;28;20079;-80
2023/08/24 03:59:50;;;;;;;23.55;17.48;;;20.30;99.90;;;;;;5033684;28;20032;-78
2023/08/24 04:02:16;;;;;;;24.30;16.90;;;20.30;99.90;;;;;;5024193;28;20028;-78
2023/08/24 04:04:42;;;;;;;23.08;16.88;;;20.20;99.90;;;;;;5035153;28;20022;-79
2023/08/24 04:07:07;;;;;;;30.25;19.92;;;20.10;99.90;;;;;;5034338;28;20594;-78
2023/08/24 04:09:33;;;;;;;23.48;17.40;;;20.10;99.90;;;;;;5033128;28;20026;-78
2023/08/24 04:11:59;;;;;;;27.38;18.27;;;20.10;99.90;;;;;;5032556;28;20032;-78
2023/08/24 04:14:24;;;;;;;23.58;18.20;;;20.10;99.90;;;;;;5033531;28;20499;-78
2023/08/24 04:16:50;;;;;;;23.67;16.98;;;20.10;99.90;;;;;;5034651;28;20105;-78
2023/08/24 04:19:16;;;;;;;24.08;18.48;;;20.10;99.90;;;;;;5032993;28;20022;-78
2023/08/24 04:21:42;;;;;;;24.85;16.20;;;20.00;99.90;;;;;;5032798;28;20446;-78
2023/08/24 04:24:08;;;;;;;28.58;19.67;;;20.00;99.90;;;;;;5031453;28;20474;-78
2023/08/24 04:26:34;;;;;;;27.95;19.42;;;19.90;99.90;;;;;;5029676;28;20025;-78
2023/08/24 04:29:00;;;;;;;27.63;18.10;;;20.00;99.90;;;;;;5022526;28;20503;-77
2023/08/24 04:31:25;;;;;;;28.92;19.65;;;19.90;99.90;;;;;;5028301;28;20148;-79
2023/08/24 04:33:51;;;;;;;26.13;17.77;;;19.80;99.90;;;;;;5032135;28;20084;-77
2023/08/24 04:36:17;;;;;;;27.58;16.70;;;19.80;99.90;;;;;;5033882;28;20280;-78
2023/08/24 04:38:43;;;;;;;22.65;17.92;;;19.80;99.90;;;;;;5032603;28;20041;-78
2023/08/24 04:41:11;;;;;;;25.65;18.48;;;19.80;99.90;;;;;;5017494;28;20029;-78
2023/08/24 04:43:36;;;;;;;21.80;17.23;;;19.80;99.90;;;;;;5044514;28;20014;-77
2023/08/24 04:46:02;;;;;;;35.40;17.67;;;19.90;99.90;;;;;;5032033;28;20041;-77
2023/08/24 04:48:32;;;;;;;25.83;18.75;;;20.00;99.90;;;;;;5028159;28;20025;-77
2023/08/24 04:50:59;;;;;;;22.08;17.90;;;20.00;99.90;;;;;;5032982;28;20025;-77
2023/08/24 04:53:25;;;;;;;22.33;17.40;;;20.10;99.90;;;;;;5031644;28;20018;-77
2023/08/24 04:55:51;;;;;;;27.80;16.25;;;20.10;99.90;;;;;;5034958;28;20037;-77
2023/08/24 04:58:17;;;;;;;24.45;17.33;;;20.10;99.90;;;;;;5029931;28;20013;-76
2023/08/24 05:00:43;;;;;;;23.02;17.77;;;20.10;99.90;;;;;;5022514;28;20392;-78
2023/08/24 05:03:09;;;;;;;24.00;16.48;;;20.00;99.90;;;;;;5031755;28;20029;-77
2023/08/24 05:05:36;;;;;;;25.90;17.58;;;19.90;99.90;;;;;;5030191;28;20126;-78
2023/08/24 05:08:06;;;;;;;23.85;16.80;;;19.90;99.90;;;;;;5032831;28;20021;-76
2023/08/24 05:10:33;;;;;;;27.42;16.00;;;20.00;99.90;;;;;;5032531;28;20033;-81
2023/08/24 05:12:59;;;;;;;22.90;15.93;;;20.00;99.90;;;;;;5043654;28;20026;-78
2023/08/24 05:15:26;;;;;;;21.95;15.10;;;19.90;99.90;;;;;;5045759;28;20049;-77
2023/08/24 05:17:54;;;;;;;23.17;15.10;;;19.80;99.90;;;;;;5028131;28;20068;-76
2023/08/24 05:20:21;;;;;;;19.85;14.57;;;19.70;99.90;;;;;;5032129;28;20017;-76
2023/08/24 05:22:47;;;;;;;19.95;13.35;;;19.90;99.90;;;;;;5023527;28;20026;-76
2023/08/24 05:25:13;;;;;;;19.10;15.15;;;19.80;99.90;;;;;;5044711;28;20029;-77
2023/08/24 05:27:39;;;;;;;21.33;15.50;;;19.90;99.90;;;;;;5034853;28;20488;-77
2023/08/24 05:30:06;;;;;;;24.45;15.00;;;20.00;99.90;;;;;;5031824;28;20048;-79
2023/08/24 05:32:32;;;;;;;17.98;15.02;;;20.10;99.90;;;;;;5031025;28;20087;-77
2023/08/24 05:34:58;;;;;;;19.52;16.20;;;20.10;99.90;;;;;;5030626;28;20060;-77
2023/08/24 05:37:24;;;;;;;23.95;15.48;;;20.00;99.90;;;;;;5031994;28;20053;-76
2023/08/24 05:39:50;;;;;;;21.15;16.77;;;20.10;99.90;;;;;;5036457;28;20531;-76
2023/08/24 05:42:16;;;;;;;23.30;16.48;;;20.10;99.90;;;;;;5036041;28;20113;-76
2023/08/24 05:44:42;;;;;;;23.13;17.60;;;20.10;99.90;;;;;;5035844;28;20032;-78
2023/08/24 05:47:07;;;;;;;21.90;16.05;;;20.00;99.90;;;;;;5043974;28;20498;-76
2023/08/24 05:49:33;;;;;;;21.95;15.98;;;20.10;99.90;;;;;;5035904;28;20014;-76
2023/08/24 05:51:59;;;;;;;21.17;14.90;;;20.10;99.90;;;;;;5036022;28;20025;-76
2023/08/24 05:54:25;;;;;;;20.48;14.48;;;20.20;99.90;;;;;;5035741;28;20030;-76
2023/08/24 05:56:51;;;;;;;35.35;15.30;;;20.20;99.90;;;;;;5034788;28;20029;-76
2023/08/24 05:59:16;;;;;;;24.48;15.25;;;20.20;99.90;;;;;;5029348;28;20083;-76
2023/08/24 06:01:42;;;;;;;22.80;15.20;;;20.30;99.90;;;;;;5035897;28;20049;-78
2023/08/24 06:04:09;;;;;;;20.30;13.27;;;20.20;99.90;;;;;;5035767;28;20546;-76
2023/08/24 06:06:35;;;;;;;19.23;14.15;;;20.20;99.90;;;;;;5035272;28;20044;-77
2023/08/24 06:09:04;;;;;;;18.42;13.60;;;20.20;99.90;;;;;;5035430;28;20032;-76
2023/08/24 06:11:30;;;;;;;17.45;12.75;;;20.30;99.90;;;;;;5032967;28;20034;-76
2023/08/24 06:13:56;;;;;;;18.55;13.75;;;20.30;99.90;;;;;;5034226;28;20364;-79
2023/08/24 06:16:21;;;;;;;17.48;13.15;;;20.30;99.90;;;;;;5034007;28;20053;-76
2023/08/24 06:18:49;;;;;;;18.70;13.70;;;20.40;99.90;;;;;;5043729;28;20021;-77
2023/08/24 06:21:15;;;;;;;18.80;14.32;;;20.30;99.90;;;;;;5033693;28;20383;-79
2023/08/24 06:23:41;;;;;;;20.73;14.30;;;20.30;99.90;;;;;;5035088;28;20104;-78
2023/08/24 06:26:07;;;;;;;18.27;14.30;;;20.30;99.90;;;;;;5034245;28;20111;-77
2023/08/24 06:28:33;;;;;;;19.27;14.70;;;20.30;99.90;;;;;;5032826;28;20036;-76
2023/08/24 06:31:01;;;;;;;23.60;15.23;;;20.40;99.90;;;;;;5029899;28;20067;-76
2023/08/24 06:33:36;;;;;;;20.50;13.90;;;20.40;99.90;;;;;;5035554;28;20438;-77
2023/08/24 06:36:05;;;;;;;19.45;13.73;;;20.40;99.90;;;;;;5033829;28;20122;-77
2023/08/24 06:38:31;;;;;;;19.02;13.93;;;20.40;99.90;;;;;;5034934;28;20021;-77
2023/08/24 06:41:00;;;;;;;17.83;13.70;;;20.50;99.90;;;;;;5035024;28;20155;-78
2023/08/24 06:43:27;;;;;;;18.77;13.77;;;20.50;99.90;;;;;;5026374;28;20475;-76
2023/08/24 06:45:54;;;;;;;16.70;12.88;;;20.50;99.90;;;;;;5037078;28;20034;-77
2023/08/24 06:48:20;;;;;;;17.40;12.05;;;20.40;99.90;;;;;;5044717;28;20470;-77
2023/08/24 06:50:46;;;;;;;14.57;11.65;;;20.40;99.90;;;;;;5037124;28;20026;-77
2023/08/24 06:53:12;;;;;;;17.92;11.75;;;20.50;99.90;;;;;;5037717;28;20037;-74
2023/08/24 06:55:38;;;;;;;17.90;11.95;;;20.50;99.90;;;;;;5037197;28;20372;-77
2023/08/24 06:58:06;;;;;;;17.73;11.82;;;20.60;99.90;;;;;;5041633;28;20491;-77
2023/08/24 07:00:35;;;;;;;18.67;12.52;;;20.60;99.90;;;;;;5030199;28;20026;-77
2023/08/24 07:03:01;;;;;;;15.90;12.07;;;20.60;99.90;;;;;;5037919;28;20076;-79
2023/08/24 07:05:27;;;;;;;15.32;10.95;;;20.60;99.90;;;;;;5042430;28;20479;-80
2023/08/24 07:07:56;;;;;;;15.57;12.35;;;20.70;99.90;;;;;;5035506;28;20515;-78
2023/08/24 07:10:22;;;;;;;22.63;12.98;;;20.80;99.90;;;;;;5034676;28;20044;-77
2023/08/24 07:12:47;;;;;;;17.77;11.88;;;20.80;99.90;;;;;;5034819;28;20448;-76
2023/08/24 07:15:13;;;;;;;16.65;11.63;;;20.90;99.90;;;;;;5033813;28;20027;-77
2023/08/24 07:17:39;;;;;;;16.65;11.32;;;21.00;99.90;;;;;;5034182;28;20087;-77
2023/08/24 07:20:07;;;;;;;18.17;10.07;;;21.00;99.90;;;;;;5036604;28;20061;-77
2023/08/24 07:22:33;;;;;;;18.70;12.02;;;21.10;99.90;;;;;;5024761;28;20373;-78
2023/08/24 07:25:00;;;;;;;18.73;10.25;;;21.10;99.90;;;;;;5042820;28;20033;-77
2023/08/24 07:27:28;;;;;;;23.40;12.23;;;21.10;99.90;;;;;;5033578;28;20017;-77
2023/08/24 07:29:54;;;;;;;16.88;9.98;;;21.20;99.90;;;;;;5033437;28;20022;-77
2023/08/24 07:32:19;;;;;;;18.02;9.90;;;21.30;99.90;;;;;;5034693;28;20032;-76
2023/08/24 07:34:46;;;;;;;15.20;10.25;;;21.30;99.90;;;;;;5033799;28;20017;-74
2023/08/24 07:37:12;;;;;;;19.25;11.40;;;21.40;99.90;;;;;;5035658;28;20053;-74
2023/08/24 07:39:38;;;;;;;13.40;8.93;;;21.50;99.90;;;;;;5041428;28;20054;-76
2023/08/24 07:42:04;;;;;;;13.50;9.05;;;21.60;99.90;;;;;;5034178;28;20033;-75
2023/08/24 07:44:30;;;;;;;13.80;9.50;;;21.70;99.90;;;;;;5050311;28;20430;-74
2023/08/24 07:46:56;;;;;;;22.35;12.25;;;21.80;99.90;;;;;;5032287;28;20018;-74
2023/08/24 07:49:22;;;;;;;15.05;8.60;;;22.10;99.90;;;;;;5049028;28;20049;-74
2023/08/24 07:51:47;;;;;;;21.67;12.50;;;22.20;99.90;;;;;;5032257;28;20399;-74
2023/08/24 07:54:14;;;;;;;20.05;12.75;;;22.20;99.90;;;;;;5032429;28;20025;-74
2023/08/24 07:56:40;;;;;;;25.05;12.70;;;22.40;99.90;;;;;;5042850;28;20543;-76
2023/08/24 07:59:06;;;;;;;16.33;11.73;;;22.40;99.90;;;;;;5032908;28;20026;-74
2023/08/24 08:01:32;;;;;;;17.85;10.27;;;22.60;99.90;;;;;;5032802;28;20450;-74
2023/08/24 08:04:00;;;;;;;16.25;11.77;;;22.70;99.90;;;;;;5052610;28;20010;-75
2023/08/24 08:06:26;;;;;;;16.48;9.60;;;22.80;99.90;;;;;;5033343;28;20049;-74
2023/08/24 08:08:52;;;;;;;15.57;10.15;;;22.90;99.90;;;;;;5044014;28;20040;-74
2023/08/24 08:11:18;;;;;;;12.18;8.80;;;23.00;99.90;;;;;;5031628;28;20036;-75
2023/08/24 08:13:44;;;;;;;19.20;11.35;;;23.10;99.90;;;;;;5033743;28;20025;-74
2023/08/24 08:16:10;;;;;;;30.17;11.50;;;23.10;99.90;;;;;;5031282;28;20017;-77
2023/08/24 08:18:37;;;;;;;16.75;10.00;;;23.20;99.90;;;;;;5046727;28;20407;-74
2023/08/24 08:21:17;;;;;;;15.68;9.88;;;23.30;99.90;;;;;;5048496;28;20044;-74
2023/08/24 08:23:47;;;;;;;18.00;10.65;;;23.40;99.90;;;;;;5042901;28;20053;-75
2023/08/24 08:26:18;;;;;;;14.70;9.07;;;23.40;99.90;;;;;;5040358;28;20026;-75
2023/08/24 08:28:44;;;;;;;14.30;9.15;;;23.50;99.90;;;;;;5042281;28;20017;-74
2023/08/24 08:31:10;;;;;;;14.00;9.85;;;23.60;99.90;;;;;;5037964;28;20109;-74
2023/08/24 08:33:36;;;;;;;16.05;9.75;;;23.70;99.90;;;;;;5038293;28;20021;-74
2023/08/24 08:36:03;;;;;;;18.02;10.43;;;23.80;99.90;;;;;;5034014;28;20472;-74
2023/08/24 08:38:29;;;;;;;14.43;9.45;;;23.90;99.90;;;;;;5018771;28;20060;-74
2023/08/24 08:40:58;;;;;;;16.00;10.65;;;24.00;99.90;;;;;;5024237;28;20436;-74
2023/08/24 08:43:24;;;;;;;14.65;9.60;;;24.10;99.90;;;;;;5032690;28;20022;-74
2023/08/24 08:45:52;;;;;;;16.35;9.95;;;24.10;99.90;;;;;;5033080;28;20467;-74
2023/08/24 08:48:20;;;;;;;14.40;9.07;;;24.20;99.90;;;;;;5033248;28;20049;-74
2023/08/24 08:50:48;;;;;;;10.35;9.10;;;24.30;99.90;;;;;;5038509;28;20114;-75
2023/08/24 08:53:15;;;;;;;13.88;8.55;;;24.40;99.90;;;;;;5027655;28;20164;-73
2023/08/24 08:55:41;;;;;;;15.35;8.75;;;24.40;99.90;;;;;;5031469;28;20033;-77
2023/08/24 08:58:08;;;;;;;11.90;8.50;;;24.50;99.90;;;;;;5031581;28;20393;-73
2023/08/24 09:00:35;;;;;;;10.52;8.30;;;24.50;99.90;;;;;;5032462;28;20080;-74
2023/08/24 09:03:02;;;;;;;13.90;7.28;;;24.60;99.90;;;;;;5048040;28;20456;-74
2023/08/24 09:05:28;;;;;;;12.48;7.57;;;24.70;99.90;;;;;;5027423;28;20057;-74
2023/08/24 09:07:57;;;;;;;16.80;7.93;;;24.70;99.90;;;;;;5032043;28;20032;-74
2023/08/24 09:10:23;;;;;;;13.00;7.18;;;24.80;99.90;;;;;;5032855;28;20016;-74
2023/08/24 09:12:49;;;;;;;10.13;6.30;;;24.80;99.90;;;;;;5044193;28;20026;-74
2023/08/24 09:15:25;;;;;;;13.13;6.40;;;24.80;99.90;;;;;;5028885;28;20484;-74
2023/08/24 09:17:51;;;;;;;10.40;5.72;;;25.00;99.90;;;;;;5023318;28;20075;-74
2023/08/24 09:20:17;;;;;;;13.05;5.40;;;24.90;99.90;;;;;;5048262;28;20029;-74
2023/08/24 09:22:44;;;;;;;12.13;5.72;;;25.00;99.90;;;;;;5032163;28;20068;-75
2023/08/24 09:25:10;;;;;;;8.60;5.38;;;25.00;99.90;;;;;;5029826;28;20071;-74
2023/08/24 09:27:36;;;;;;;10.70;6.05;;;25.10;99.90;;;;;;5030836;28;20381;-75
2023/08/24 09:30:02;;;;;;;13.88;6.38;;;25.20;99.90;;;;;;5039466;28;20034;-75
2023/08/24 09:32:30;;;;;;;12.02;6.25;;;25.30;99.90;;;;;;5032459;28;20025;-77
2023/08/24 09:35:05;;;;;;;7.95;6.25;;;25.40;99.90;;;;;;5032689;28;20021;-77
2023/08/24 09:37:33;;;;;;;13.15;5.80;;;25.30;99.90;;;;;;5032939;28;20037;-77
2023/08/24 09:40:07;;;;;;;10.57;5.93;;;25.50;99.90;;;;;;5048776;28;20063;-75
2023/08/24 09:42:41;;;;;;;7.93;5.88;;;25.50;99.90;;;;;;5035758;28;20177;-75
2023/08/24 09:45:11;;;;;;;12.18;6.47;;;25.50;99.90;;;;;;5030823;28;20180;-74
2023/08/24 09:47:37;;;;;;;10.02;5.47;;;25.50;99.90;;;;;;5038400;28;20054;-77
2023/08/24 09:50:08;;;;;;;13.60;6.70;;;25.50;99.90;;;;;;5027997;28;20032;-76
2023/08/24 09:52:34;;;;;;;11.55;7.22;;;25.40;99.90;;;;;;5022046;28;20463;-75
2023/08/24 09:55:07;;;;;;;10.35;6.32;;;25.40;99.90;;;;;;5046467;28;20029;-75
2023/08/24 09:57:38;;;;;;;13.23;6.70;;;25.40;99.90;;;;;;5030330;28;20034;-75
2023/08/24 10:00:11;;;;;;;9.43;5.90;;;25.40;99.90;;;;;;5029994;28;20555;-75
2023/08/24 10:02:49;;;;;;;11.07;5.95;;;25.40;99.90;;;;;;5031916;28;20475;-75
2023/08/24 10:05:23;;;;;;;8.57;6.05;;;25.40;99.90;;;;;;5047234;28;20025;-75
2023/08/24 10:07:56;;;;;;;9.00;5.63;;;25.40;99.90;;;;;;5032166;28;20025;-75
2023/08/24 10:10:24;;;;;;;8.13;5.57;;;25.50;99.90;;;;;;5034432;28;20025;-75
2023/08/24 10:13:00;;;;;;;14.02;6.35;;;25.50;99.90;;;;;;5031127;28;20025;-75
2023/08/24 10:15:26;;;;;;;11.75;5.30;;;25.50;99.90;;;;;;5032426;28;20023;-75
2023/08/24 10:17:53;;;;;;;17.17;5.97;;;25.60;99.90;;;;;;5035969;28;20375;-76
2023/08/24 10:20:22;;;;;;;10.57;5.20;;;25.60;99.90;;;;;;5035097;28;20042;-76
2023/08/24 10:22:50;;;;;;;9.80;6.22;;;25.60;99.90;;;;;;5033577;28;20390;-75
2023/08/24 10:25:18;;;;;;;10.57;6.15;;;25.60;99.90;;;;;;5031105;28;20018;-75
2023/08/24 10:27:47;;;;;;;8.27;5.85;;;25.60;99.90;;;;;;5036582;28;20052;-75
2023/08/24 10:30:15;;;;;;;12.07;5.68;;;25.60;99.90;;;;;;5035420;28;20029;-76
2023/08/24 10:32:42;;;;;;;11.52;6.20;;;25.50;99.90;;;;;;5031772;28;20456;-76
2023/08/24 10:35:08;;;;;;;9.55;5.65;;;25.50;99.90;;;;;;5039867;28;20032;-75
2023/08/24 10:37:34;;;;;;;11.25;7.00;;;25.50;99.90;;;;;;5040582;28;20018;-75
2023/08/24 10:40:00;;;;;;;16.40;6.82;;;25.40;99.90;;;;;;5039343;28;20021;-75
2023/08/24 10:42:26;;;;;;;11.82;6.63;;;25.40;99.90;;;;;;5038778;28;20511;-75
2023/08/24 10:44:52;;;;;;;8.68;6.55;;;25.30;99.90;;;;;;5034535;28;20029;-76
2023/08/24 10:47:20;;;;;;;10.00;5.88;;;25.30;99.90;;;;;;5029732;28;20631;-75
2023/08/24 10:49:55;;;;;;;11.13;6.40;;;25.30;99.90;;;;;;5047828;28;20426;-75
2023/08/24 10:52:23;;;;;;;9.77;6.05;;;25.20;99.90;;;;;;5040047;28;20436;-75
2023/08/24 10:54:51;;;;;;;10.07;5.55;;;25.30;99.90;;;;;;5034989;28;20090;-75
2023/08/24 10:57:23;;;;;;;12.35;6.30;;;25.20;99.90;;;;;;5039283;28;20059;-76
2023/08/24 11:00:00;;;;;;;10.32;4.97;;;25.20;99.90;;;;;;5029930;28;20044;-76
2023/08/24 11:02:26;;;;;;;19.48;5.55;;;25.20;99.90;;;;;;5037104;28;20087;-76
2023/08/24 11:05:32;;;;;;;8.13;5.57;;;25.20;99.90;;;;;;5035406;28;20020;-75
2023/08/24 11:07:59;;;;;;;9.93;5.85;;;25.10;99.90;;;;;;5035769;28;20025;-75
2023/08/24 11:10:46;;;;;;;9.38;4.95;;;25.10;99.90;;;;;;5034976;28;20024;-76
2023/08/24 11:13:19;;;;;;;8.57;5.03;;;25.20;99.90;;;;;;5031223;28;20025;-77
2023/08/24 11:15:54;;;;;;;9.32;5.65;;;25.20;99.90;;;;;;5037384;28;20029;-78
2023/08/24 11:18:26;;;;;;;8.75;5.35;;;25.10;99.90;;;;;;5031164;28;20025;-80
2023/08/24 11:20:59;;;;;;;10.38;5.72;;;25.10;99.90;;;;;;5033579;28;20495;-81
2023/08/24 11:23:26;;;;;;;13.25;6.10;;;25.10;99.90;;;;;;5033432;28;20025;-81
2023/08/24 11:25:57;;;;;;;10.95;6.72;;;25.00;99.90;;;;;;5031528;28;20567;-81
2023/08/24 11:28:28;;;;;;;7.00;5.65;;;25.00;99.90;;;;;;5046825;28;20025;-80
2023/08/24 11:30:55;;;;;;;14.70;6.38;;;24.90;99.90;;;;;;5032853;28;20124;-79
2023/08/24 11:33:31;;;;;;;13.57;6.88;;;24.80;99.90;;;;;;5034322;28;20033;-79
2023/08/24 11:35:57;;;;;;;11.68;6.93;;;24.70;99.90;;;;;;5033563;28;20826;-80
2023/08/24 11:38:23;;;;;;;10.80;6.03;;;24.70;99.90;;;;;;5027779;28;20125;-81
2023/08/24 11:40:49;;;;;;;14.88;7.65;;;24.50;99.90;;;;;;5040445;28;20116;-81
2023/08/24 11:43:28;;;;;;;13.50;7.55;;;24.20;99.90;;;;;;5033414;28;20030;-80
2023/08/24 11:45:55;;;;;;;15.73;7.25;;;24.20;99.90;;;;;;5054006;28;20457;-81
2023/08/24 11:48:26;;;;;;;10.52;8.05;;;24.10;99.90;;;;;;5032253;28;20024;-81
2023/08/24 11:50:53;;;;;;;12.40;8.25;;;24.10;99.90;;;;;;5030404;28;20049;-80
2023/08/24 11:53:19;;;;;;;16.90;8.07;;;24.00;99.90;;;;;;5018978;28;20164;-80
2023/08/24 11:55:45;;;;;;;14.90;8.48;;;24.00;99.90;;;;;;5030142;28;20116;-79
2023/08/24 11:58:15;;;;;;;9.63;7.03;;;24.00;99.90;;;;;;5032902;28;20163;-78
2023/08/24 12:00:43;;;;;;;18.13;9.02;;;24.30;99.90;;;;;;5049287;28;20478;-78
2023/08/24 12:03:09;;;;;;;13.25;8.77;;;24.50;99.90;;;;;;5049313;28;20176;-78
2023/08/24 12:05:35;;;;;;;16.77;9.88;;;24.60;99.90;;;;;;5032526;28;20014;-79
2023/08/24 12:08:02;;;;;;;10.93;8.60;;;24.60;99.90;;;;;;5035745;28;20550;-78
2023/08/24 12:10:28;;;;;;;16.48;9.07;;;24.60;99.90;;;;;;5032148;28;20018;-77
2023/08/24 12:13:05;;;;;;;13.05;8.20;;;24.80;99.90;;;;;;5018990;28;20120;-77
2023/08/24 12:15:33;;;;;;;14.18;8.70;;;24.90;99.90;;;;;;5036611;28;20476;-77
2023/08/24 12:18:07;;;;;;;11.32;8.10;;;24.90;99.90;;;;;;5030954;28;20674;-77
2023/08/24 12:20:33;;;;;;;11.15;8.38;;;24.90;99.90;;;;;;5037462;28;20416;-77
2023/08/24 12:23:00;;;;;;;12.70;7.80;;;24.80;99.90;;;;;;5033508;28;20029;-77
2023/08/24 12:25:26;;;;;;;12.73;7.97;;;24.80;99.90;;;;;;5029703;28;20022;-77
2023/08/24 12:27:52;;;;;;;9.38;6.90;;;24.80;99.90;;;;;;5025458;28;20022;-76
2023/08/24 12:30:19;;;;;;;8.30;6.30;;;24.80;99.90;;;;;;5038791;28;20396;-76
2023/08/24 12:32:47;;;;;;;11.13;7.00;;;24.90;99.90;;;;;;5043247;28;20018;-76
2023/08/24 12:35:14;;;;;;;9.57;7.22;;;24.90;99.90;;;;;;5033247;28;20035;-76